Time;durP1;ratioP1;P1;durP2;ratioP2;P2;SDS_P1;SDS_P2;PMS_P1;PMS_P2;Temp;Humidity;BMP_temperature;BMP_pressure;BME280_temperature;BME280_humidity;BME280_pressure;Samples;Min_cycle;Max_cycle;Signal;HPM_P1;HPM_P2
2021/11/30 00:01:06;;;;;;;0.40;0.40;;;6.20;99.90;;;;;;5046623;28;20213;-85
2021/11/30 00:03:34;;;;;;;0.37;0.37;;;6.20;99.90;;;;;;5042756;28;20215;-86
2021/11/30 00:05:59;;;;;;;0.30;0.30;;;6.20;99.90;;;;;;5036526;28;20224;-85
2021/11/30 00:08:29;;;;;;;0.30;0.27;;;6.10;99.90;;;;;;5048027;28;20214;-86
2021/11/30 00:10:58;;;;;;;1.80;1.27;;;6.10;99.90;;;;;;5047331;28;20228;-86
2021/11/30 00:13:26;;;;;;;0.30;0.30;;;6.10;99.90;;;;;;5047523;28;20233;-86
2021/11/30 00:15:52;;;;;;;1.13;0.63;;;6.10;99.90;;;;;;5063653;28;20249;-87
2021/11/30 00:18:19;;;;;;;0.50;0.50;;;6.10;99.90;;;;;;5047312;28;20225;-85
2021/11/30 00:20:46;;;;;;;4.03;1.53;;;6.10;99.90;;;;;;5048384;28;20243;-86
2021/11/30 00:23:13;;;;;;;0.20;0.20;;;6.10;99.90;;;;;;5045990;28;20273;-87
2021/11/30 00:25:39;;;;;;;0.40;0.40;;;6.10;99.90;;;;;;5027397;28;20195;-85
2021/11/30 00:28:06;;;;;;;1.87;0.50;;;6.20;99.90;;;;;;5008025;28;20218;-85
2021/11/30 00:30:32;;;;;;;8.53;0.70;;;6.20;99.90;;;;;;5054546;28;20218;-86
2021/11/30 00:32:59;;;;;;;9.23;0.83;;;6.20;99.90;;;;;;5030488;28;20237;-88
2021/11/30 00:35:26;;;;;;;0.50;0.40;;;6.30;99.90;;;;;;5042873;28;20218;-87
2021/11/30 00:37:52;;;;;;;0.30;0.30;;;6.30;99.90;;;;;;5019728;28;20281;-86
2021/11/30 00:40:18;;;;;;;10.00;0.93;;;6.30;99.90;;;;;;5023311;28;20991;-88
2021/11/30 00:42:44;;;;;;;0.40;0.40;;;6.30;99.90;;;;;;5024163;28;20269;-86
2021/11/30 00:45:14;;;;;;;0.40;0.40;;;6.40;99.90;;;;;;5059341;28;20342;-86
2021/11/30 00:47:47;;;;;;;1.23;0.63;;;6.40;99.90;;;;;;5032932;28;20280;-85
2021/11/30 00:50:13;;;;;;;0.63;0.40;;;6.40;99.90;;;;;;5043224;28;20272;-86
2021/11/30 00:52:39;;;;;;;1.03;0.90;;;6.50;99.90;;;;;;5043737;28;20222;-87
2021/11/30 00:55:05;;;;;;;1.80;1.70;;;6.50;99.90;;;;;;5028353;28;20222;-88
2021/11/30 00:57:32;;;;;;;1.40;0.80;;;6.60;99.90;;;;;;5039450;28;20249;-85
2021/11/30 00:59:57;;;;;;;1.53;0.70;;;6.60;99.90;;;;;;5035324;28;20704;-86
2021/11/30 01:02:23;;;;;;;1.17;0.47;;;6.70;99.90;;;;;;5022767;28;20227;-85
2021/11/30 01:04:49;;;;;;;4.40;1.23;;;6.70;99.90;;;;;;4999062;28;20202;-86
2021/11/30 01:07:15;;;;;;;2.00;0.30;;;6.70;99.90;;;;;;5025819;28;20214;-88
2021/11/30 01:09:42;;;;;;;0.40;0.37;;;6.80;99.90;;;;;;5040028;28;20272;-85
2021/11/30 01:12:09;;;;;;;1.57;1.47;;;6.80;99.90;;;;;;5026073;28;20321;-87
2021/11/30 01:14:35;;;;;;;0.70;0.70;;;6.90;99.90;;;;;;5026427;28;20214;-88
2021/11/30 01:17:01;;;;;;;0.87;0.87;;;6.90;99.90;;;;;;5027116;28;20695;-87
2021/11/30 01:19:27;;;;;;;0.50;0.50;;;7.00;99.90;;;;;;5045427;28;20271;-87
2021/11/30 01:21:53;;;;;;;0.70;0.70;;;7.00;99.90;;;;;;5022108;28;20712;-86
2021/11/30 01:24:19;;;;;;;0.57;0.37;;;7.00;99.90;;;;;;5025281;28;20254;-85
2021/11/30 01:26:45;;;;;;;1.80;1.17;;;7.10;99.90;;;;;;5041824;28;20218;-87
2021/11/30 01:29:11;;;;;;;0.20;0.20;;;7.20;99.90;;;;;;5012936;28;20194;-88
2021/11/30 01:31:37;;;;;;;6.03;1.13;;;7.20;99.90;;;;;;5021285;28;20446;-87
2021/11/30 01:34:04;;;;;;;0.50;0.50;;;7.30;99.90;;;;;;5037770;28;20610;-87
2021/11/30 01:36:30;;;;;;;4.50;0.87;;;7.40;99.90;;;;;;5034764;28;20217;-86
2021/11/30 01:38:56;;;;;;;0.80;0.80;;;7.40;99.90;;;;;;5033781;28;20242;-86
2021/11/30 01:41:22;;;;;;;1.57;0.57;;;7.50;99.90;;;;;;5023463;28;20222;-88
2021/11/30 01:43:50;;;;;;;1.03;0.47;;;7.50;99.90;;;;;;5028825;28;20191;-86
2021/11/30 01:46:28;;;;;;;0.50;0.50;;;7.50;99.90;;;;;;5024664;28;20218;-84
2021/11/30 01:51:39;;;;;;;0.53;0.53;;;7.70;99.90;;;;;;5018319;28;20229;-88
2021/11/30 01:54:04;;;;;;;0.80;0.77;;;7.70;99.90;;;;;;5023125;28;20219;-85
2021/11/30 01:56:30;;;;;;;1.30;0.57;;;7.70;99.90;;;;;;5057727;28;20937;-86
2021/11/30 01:58:57;;;;;;;0.20;0.20;;;7.80;99.90;;;;;;5026377;28;20219;-84
2021/11/30 02:01:23;;;;;;;0.97;0.70;;;7.80;99.90;;;;;;5045198;28;20222;-86
2021/11/30 02:03:49;;;;;;;1.60;1.50;;;7.80;99.90;;;;;;5030232;28;20218;-86
2021/11/30 02:06:15;;;;;;;0.20;0.20;;;7.90;99.90;;;;;;5042341;28;20218;-84
2021/11/30 02:08:41;;;;;;;1.10;1.00;;;7.90;99.90;;;;;;5026395;28;20231;-85
2021/11/30 02:11:07;;;;;;;2.27;0.90;;;8.00;99.90;;;;;;5026584;28;20326;-85
2021/11/30 02:13:33;;;;;;;0.20;0.20;;;7.90;99.90;;;;;;5045278;28;20281;-87
2021/11/30 02:16:01;;;;;;;0.80;0.80;;;8.10;99.90;;;;;;5041248;28;20247;-87
2021/11/30 02:18:28;;;;;;;0.77;0.77;;;8.10;99.90;;;;;;5033091;28;20253;-86
2021/11/30 02:20:58;;;;;;;0.50;0.50;;;8.10;99.90;;;;;;5024974;28;20276;-84
2021/11/30 02:26:00;;;;;;;1.27;1.17;;;8.30;99.90;;;;;;5016651;28;20199;-86
2021/11/30 02:28:25;;;;;;;0.87;0.50;;;8.30;99.90;;;;;;5024312;28;20678;-84
2021/11/30 02:30:51;;;;;;;0.50;0.50;;;8.40;99.90;;;;;;5012606;28;20233;-85
2021/11/30 02:33:17;;;;;;;0.33;0.33;;;8.40;99.90;;;;;;5035138;28;21040;-85
2021/11/30 02:35:43;;;;;;;2.33;0.73;;;8.50;99.90;;;;;;5044303;28;20226;-84
2021/11/30 02:38:10;;;;;;;0.43;0.43;;;8.60;99.90;;;;;;5043224;28;20190;-87
2021/11/30 02:40:36;;;;;;;3.90;1.30;;;8.60;99.90;;;;;;5024851;28;20193;-85
2021/11/30 02:43:03;;;;;;;0.40;0.30;;;8.70;99.90;;;;;;5038493;28;20686;-86
2021/11/30 02:45:30;;;;;;;0.47;0.47;;;8.80;99.90;;;;;;5029367;28;20256;-85
2021/11/30 02:47:55;;;;;;;2.43;0.90;;;8.80;99.90;;;;;;5055807;28;20246;-85
2021/11/30 02:50:22;;;;;;;0.93;0.73;;;8.90;99.90;;;;;;5023329;28;20297;-84
2021/11/30 02:52:48;;;;;;;0.43;0.40;;;8.80;99.90;;;;;;5027325;28;20205;-85
2021/11/30 02:55:13;;;;;;;0.20;0.20;;;8.80;99.90;;;;;;5049101;28;21096;-87
2021/11/30 02:57:39;;;;;;;2.47;1.40;;;8.90;99.90;;;;;;5050577;28;20669;-84
2021/11/30 03:00:07;;;;;;;0.10;0.10;;;8.90;99.90;;;;;;5029270;28;20258;-88
2021/11/30 03:02:35;;;;;;;7.50;0.27;;;8.90;99.90;;;;;;5037350;28;20269;-84
2021/11/30 03:05:02;;;;;;;0.30;0.30;;;9.00;99.90;;;;;;5013551;28;20194;-84
2021/11/30 03:07:37;;;;;;;0.80;0.50;;;9.10;99.90;;;;;;5032375;28;20194;-85
2021/11/30 03:10:10;;;;;;;0.33;0.33;;;9.10;99.90;;;;;;5031073;28;20228;-85
2021/11/30 03:12:39;;;;;;;1.53;1.13;;;9.20;99.90;;;;;;5029111;28;20241;-86
2021/11/30 03:15:10;;;;;;;0.83;0.83;;;9.20;99.90;;;;;;5028155;28;20238;-87
2021/11/30 03:17:36;;;;;;;0.60;0.60;;;9.20;99.90;;;;;;5027235;28;20253;-86
2021/11/30 03:20:04;;;;;;;5.37;0.33;;;9.20;99.90;;;;;;5031393;28;20201;-87
2021/11/30 03:22:29;;;;;;;0.30;0.30;;;9.30;99.90;;;;;;5054768;28;20221;-84
2021/11/30 03:24:55;;;;;;;1.83;0.93;;;9.30;99.90;;;;;;5018299;28;21174;-84
2021/11/30 03:27:21;;;;;;;3.97;0.67;;;9.20;99.90;;;;;;5041919;28;20217;-87
2021/11/30 03:29:46;;;;;;;0.10;0.10;;;9.20;99.90;;;;;;5045931;28;20241;-86
2021/11/30 03:33:58;;;;;;;0.93;0.93;;;9.20;99.90;;;;;;5032089;28;20198;-86
2021/11/30 03:34:58;;;;;;;2.70;0.77;;;9.10;99.90;;;;;;5032760;28;20195;-86
2021/11/30 03:37:24;;;;;;;3.10;0.50;;;9.10;99.90;;;;;;5047565;28;20697;-86
2021/11/30 03:39:51;;;;;;;0.57;0.47;;;9.00;99.90;;;;;;5047325;28;20238;-85
2021/11/30 03:42:18;;;;;;;0.20;0.20;;;9.00;99.90;;;;;;5046743;28;20858;-86
2021/11/30 03:44:43;;;;;;;0.33;0.33;;;9.00;99.90;;;;;;5047214;28;20222;-86
2021/11/30 03:47:09;;;;;;;0.17;0.17;;;9.00;99.90;;;;;;5032055;28;20400;-86
2021/11/30 03:49:35;;;;;;;0.57;0.20;;;9.00;99.90;;;;;;5032366;28;20259;-85
2021/11/30 03:52:01;;;;;;;0.50;0.50;;;9.00;99.90;;;;;;5031231;28;20260;-87
2021/11/30 03:54:28;;;;;;;0.50;0.40;;;9.10;99.90;;;;;;5060303;28;20215;-86
2021/11/30 03:56:54;;;;;;;2.57;0.70;;;9.10;99.90;;;;;;5060143;28;20214;-85
2021/11/30 03:59:19;;;;;;;2.67;0.70;;;9.20;99.90;;;;;;5032971;28;20232;-86
2021/11/30 04:01:45;;;;;;;4.87;0.90;;;9.20;99.90;;;;;;5034681;28;20204;-86
2021/11/30 04:04:19;;;;;;;2.13;0.20;;;9.20;99.90;;;;;;5048969;28;20604;-85
2021/11/30 04:06:47;;;;;;;0.67;0.67;;;9.20;99.90;;;;;;5027664;28;20681;-86
2021/11/30 04:09:13;;;;;;;0.10;0.10;;;9.30;99.90;;;;;;5027472;28;20225;-87
2021/11/30 04:11:40;;;;;;;3.40;0.80;;;9.40;99.90;;;;;;5026704;28;20245;-88
2021/11/30 04:14:07;;;;;;;0.20;0.20;;;9.40;99.90;;;;;;5027373;28;20199;-86
2021/11/30 04:16:33;;;;;;;0.33;0.33;;;9.50;99.90;;;;;;5028323;28;20238;-87
2021/11/30 04:18:59;;;;;;;2.27;0.40;;;9.40;99.90;;;;;;5043891;28;20238;-86
2021/11/30 04:21:25;;;;;;;15.57;1.47;;;9.50;99.90;;;;;;5021878;28;20230;-87
2021/11/30 04:23:53;;;;;;;1.70;1.07;;;9.50;99.90;;;;;;5030589;28;20671;-85
2021/11/30 04:26:19;;;;;;;0.30;0.30;;;9.50;99.90;;;;;;5046597;28;20202;-85
2021/11/30 04:28:46;;;;;;;1.57;0.80;;;9.50;99.90;;;;;;5047648;28;20198;-87
2021/11/30 04:31:12;;;;;;;1.70;1.33;;;9.50;99.90;;;;;;5046858;28;20225;-84
2021/11/30 04:33:39;;;;;;;4.00;0.33;;;9.40;99.90;;;;;;5024916;28;20234;-87
2021/11/30 04:36:08;;;;;;;0.83;0.13;;;9.40;99.90;;;;;;5010202;28;20229;-86
2021/11/30 04:38:35;;;;;;;1.53;1.43;;;9.40;99.90;;;;;;5029302;28;20225;-87
2021/11/30 04:41:01;;;;;;;0.00;0.00;;;9.30;99.90;;;;;;5044361;28;20182;-85
2021/11/30 04:43:34;;;;;;;1.10;1.10;;;9.40;99.90;;;;;;5043551;28;20205;-86
2021/11/30 04:46:12;;;;;;;1.27;0.70;;;9.40;99.90;;;;;;5030166;28;20581;-86
2021/11/30 04:48:41;;;;;;;1.07;0.20;;;9.40;99.90;;;;;;5035341;28;20681;-85
2021/11/30 04:51:11;;;;;;;0.67;0.53;;;9.40;99.90;;;;;;5042742;28;20226;-86
2021/11/30 04:53:39;;;;;;;6.20;0.90;;;9.50;99.90;;;;;;5026128;28;20250;-86
2021/11/30 04:56:05;;;;;;;0.10;0.10;;;9.50;99.90;;;;;;5026291;28;20233;-86
2021/11/30 04:58:31;;;;;;;0.30;0.30;;;9.50;99.90;;;;;;5059999;28;20207;-86
2021/11/30 05:00:57;;;;;;;1.43;0.63;;;9.50;99.90;;;;;;5037574;28;20370;-87
2021/11/30 05:03:23;;;;;;;0.20;0.20;;;9.50;99.90;;;;;;5039543;28;20268;-87
2021/11/30 05:05:48;;;;;;;3.27;0.47;;;9.50;99.90;;;;;;5048362;28;20218;-87
2021/11/30 05:08:15;;;;;;;0.70;0.20;;;9.60;99.90;;;;;;5027410;28;20198;-88
2021/11/30 05:10:40;;;;;;;3.60;0.50;;;9.60;99.90;;;;;;5030144;28;20198;-87
2021/11/30 05:13:06;;;;;;;1.50;1.40;;;9.60;99.90;;;;;;5029449;28;20246;-87
2021/11/30 05:15:32;;;;;;;0.30;0.30;;;9.70;99.90;;;;;;5001337;28;20269;-85
2021/11/30 05:17:58;;;;;;;4.40;1.30;;;9.80;99.90;;;;;;5057378;28;20226;-87
2021/11/30 05:20:24;;;;;;;0.37;0.30;;;9.80;99.90;;;;;;5028613;28;20696;-87
2021/11/30 05:22:52;;;;;;;0.10;0.10;;;9.80;99.90;;;;;;5047214;28;21154;-86
2021/11/30 05:25:19;;;;;;;3.13;1.50;;;9.80;99.90;;;;;;5046199;28;20645;-86
2021/11/30 05:27:45;;;;;;;2.97;1.23;;;9.80;99.90;;;;;;5045941;28;21045;-87
2021/11/30 05:30:18;;;;;;;1.00;1.00;;;9.80;99.90;;;;;;5046280;28;20301;-85
2021/11/30 05:32:44;;;;;;;3.80;1.33;;;9.80;99.90;;;;;;5061098;28;20230;-85
2021/11/30 05:35:10;;;;;;;6.90;1.10;;;9.80;99.90;;;;;;5043519;28;20305;-86
2021/11/30 05:37:36;;;;;;;0.80;0.50;;;9.80;99.90;;;;;;5027280;28;20213;-86
2021/11/30 05:40:04;;;;;;;10.43;1.03;;;9.80;99.90;;;;;;5033004;28;20677;-86
2021/11/30 05:42:30;;;;;;;1.50;1.37;;;9.80;99.90;;;;;;5032555;28;20226;-84
2021/11/30 05:44:56;;;;;;;9.30;0.37;;;9.80;99.90;;;;;;5025421;28;20611;-87
2021/11/30 05:47:22;;;;;;;2.23;0.87;;;9.80;99.90;;;;;;5009359;28;20218;-86
2021/11/30 05:49:48;;;;;;;1.70;0.80;;;9.80;99.90;;;;;;5025439;28;20217;-85
2021/11/30 05:52:14;;;;;;;8.63;1.50;;;9.80;99.90;;;;;;5041683;28;20279;-87
2021/11/30 05:54:39;;;;;;;1.23;0.30;;;9.80;99.90;;;;;;5025345;28;20628;-84
2021/11/30 05:57:07;;;;;;;3.00;1.33;;;9.80;99.90;;;;;;5034528;28;20242;-84
2021/11/30 05:59:40;;;;;;;7.67;0.80;;;9.80;99.90;;;;;;5024416;28;20226;-82
2021/11/30 06:02:08;;;;;;;1.13;0.50;;;9.80;99.90;;;;;;5024929;28;20230;-84
2021/11/30 06:04:34;;;;;;;2.00;1.60;;;9.80;99.90;;;;;;5024966;28;20261;-84
2021/11/30 06:07:00;;;;;;;0.43;0.20;;;9.80;99.90;;;;;;5041487;28;20238;-86
2021/11/30 06:09:26;;;;;;;12.50;0.63;;;9.80;99.90;;;;;;5044816;28;20214;-86
2021/11/30 06:11:52;;;;;;;3.13;0.93;;;9.80;99.90;;;;;;5024966;28;20226;-84
2021/11/30 06:14:18;;;;;;;20.17;0.97;;;9.80;99.90;;;;;;5041124;28;20202;-87
2021/11/30 06:16:44;;;;;;;0.70;0.57;;;9.80;99.90;;;;;;5045445;28;20218;-84
2021/11/30 06:19:12;;;;;;;2.37;0.30;;;9.80;99.90;;;;;;5028108;28;20218;-86
2021/11/30 06:21:38;;;;;;;1.10;0.20;;;9.80;99.90;;;;;;5031342;28;20222;-87
2021/11/30 06:24:04;;;;;;;0.30;0.30;;;9.80;99.90;;;;;;5033580;28;20213;-86
2021/11/30 06:26:30;;;;;;;0.60;0.30;;;9.90;99.90;;;;;;5040643;28;20226;-86
2021/11/30 06:28:56;;;;;;;4.03;0.40;;;9.90;99.90;;;;;;5041303;28;20212;-86
2021/11/30 06:31:22;;;;;;;10.00;0.53;;;9.90;99.90;;;;;;5015901;28;20723;-86
2021/11/30 06:33:47;;;;;;;3.07;0.37;;;9.90;99.90;;;;;;5041129;28;20228;-85
2021/11/30 06:36:13;;;;;;;5.90;2.23;;;9.80;99.90;;;;;;5035725;28;20337;-88
2021/11/30 06:38:39;;;;;;;0.10;0.10;;;9.70;99.90;;;;;;5025913;28;20297;-89
2021/11/30 06:41:05;;;;;;;0.10;0.10;;;9.70;99.90;;;;;;5009757;28;20195;-88
2021/11/30 06:43:31;;;;;;;10.20;2.93;;;9.70;99.90;;;;;;5045811;28;20190;-88
2021/11/30 06:45:56;;;;;;;0.00;0.00;;;9.70;99.90;;;;;;5041990;28;20213;-87
2021/11/30 06:48:22;;;;;;;10.80;1.07;;;9.60;99.90;;;;;;5030447;28;20214;-88
2021/11/30 06:50:49;;;;;;;4.17;0.50;;;9.60;99.90;;;;;;5020620;28;20217;-88
2021/11/30 06:53:14;;;;;;;0.73;0.73;;;9.60;99.90;;;;;;5026436;28;20206;-90
2021/11/30 06:55:40;;;;;;;0.30;0.30;;;9.60;99.90;;;;;;5044751;28;20963;-90
2021/11/30 06:58:06;;;;;;;18.93;0.53;;;9.50;99.90;;;;;;5028353;28;20214;-88
2021/11/30 07:00:32;;;;;;;1.33;1.23;;;9.60;99.90;;;;;;5037746;28;20229;-89
2021/11/30 07:02:58;;;;;;;1.10;1.03;;;9.50;99.90;;;;;;5026877;28;20213;-89
2021/11/30 07:05:33;;;;;;;2.93;1.00;;;9.40;99.90;;;;;;5049443;28;20606;-91
2021/11/30 07:15:45;;;;;;;0.10;0.10;;;9.40;99.90;;;;;;5023370;28;20231;-89
2021/11/30 07:18:14;;;;;;;3.00;0.30;;;9.40;99.90;;;;;;5034004;28;20228;-91
2021/11/30 07:20:41;;;;;;;2.47;1.13;;;9.50;99.90;;;;;;5047694;28;20227;-86
2021/11/30 07:23:07;;;;;;;3.00;0.70;;;9.50;99.90;;;;;;5025359;28;20186;-87
2021/11/30 07:25:34;;;;;;;0.33;0.33;;;9.50;99.90;;;;;;5044451;28;20185;-89
2021/11/30 07:28:00;;;;;;;0.10;0.10;;;9.50;99.90;;;;;;5026565;28;20242;-87
2021/11/30 07:30:26;;;;;;;1.00;0.77;;;9.50;99.90;;;;;;5022676;28;20745;-89
2021/11/30 07:32:52;;;;;;;0.10;0.10;;;9.50;99.90;;;;;;5037936;28;20241;-90
2021/11/30 07:35:21;;;;;;;0.10;0.10;;;9.40;99.90;;;;;;5005198;28;20229;-88
2021/11/30 07:37:48;;;;;;;0.00;0.00;;;9.30;99.90;;;;;;5006350;28;20198;-87
2021/11/30 07:40:15;;;;;;;0.10;0.10;;;9.30;99.90;;;;;;5045872;28;20213;-87
2021/11/30 07:42:42;;;;;;;0.20;0.20;;;9.20;99.90;;;;;;5049330;28;20222;-92
2021/11/30 07:45:09;;;;;;;0.50;0.50;;;9.20;99.90;;;;;;5039765;28;20317;-94
2021/11/30 07:47:35;;;;;;;0.00;0.00;;;9.20;99.90;;;;;;5033787;28;20293;-89
2021/11/30 07:50:00;;;;;;;0.73;0.30;;;9.20;99.90;;;;;;5047860;28;20696;-93
2021/11/30 07:52:26;;;;;;;0.30;0.30;;;9.10;99.90;;;;;;5029394;28;20217;-89
2021/11/30 07:54:52;;;;;;;0.30;0.17;;;9.10;99.90;;;;;;5028580;28;20229;-90
2021/11/30 07:57:18;;;;;;;2.00;0.10;;;9.10;99.90;;;;;;5044180;28;20256;-90
2021/11/30 07:59:44;;;;;;;0.73;0.20;;;9.30;99.90;;;;;;4988517;28;20222;-89
2021/11/30 08:02:10;;;;;;;0.00;0.00;;;9.30;99.90;;;;;;5027598;28;20203;-90
2021/11/30 08:04:36;;;;;;;0.40;0.40;;;9.30;99.90;;;;;;5048282;28;20198;-89
2021/11/30 08:07:02;;;;;;;0.10;0.10;;;9.30;99.90;;;;;;5031461;28;21016;-90
2021/11/30 08:09:32;;;;;;;0.00;0.00;;;9.20;99.90;;;;;;5047931;28;20275;-92
2021/11/30 08:11:57;;;;;;;2.13;0.20;;;9.30;99.90;;;;;;5047769;28;20237;-90
2021/11/30 08:14:23;;;;;;;0.37;0.37;;;9.30;99.90;;;;;;5043855;28;20241;-89
2021/11/30 08:16:49;;;;;;;0.63;0.63;;;9.40;99.90;;;;;;5028332;28;20230;-91
2021/11/30 08:19:15;;;;;;;0.57;0.57;;;9.40;99.90;;;;;;5005329;28;20221;-89
2021/11/30 08:21:40;;;;;;;2.13;0.50;;;9.30;99.90;;;;;;5046745;28;20222;-88
2021/11/30 08:24:06;;;;;;;0.30;0.30;;;9.40;99.90;;;;;;5046790;28;20214;-89
2021/11/30 08:26:32;;;;;;;0.73;0.50;;;9.40;99.90;;;;;;5048671;28;20221;-89
2021/11/30 08:28:58;;;;;;;2.20;1.07;;;9.40;99.90;;;;;;5065136;28;20194;-90
2021/11/30 08:31:24;;;;;;;0.27;0.27;;;9.30;99.90;;;;;;5047772;28;20312;-90
2021/11/30 08:33:51;;;;;;;0.60;0.60;;;9.30;99.90;;;;;;5030391;28;20348;-89
2021/11/30 08:36:17;;;;;;;0.10;0.10;;;9.20;99.90;;;;;;5056321;28;20296;-91
2021/11/30 08:38:43;;;;;;;0.20;0.10;;;9.20;99.90;;;;;;5064371;28;20309;-87
2021/11/30 08:41:09;;;;;;;0.10;0.10;;;9.20;99.90;;;;;;5048082;28;20292;-87
2021/11/30 08:43:35;;;;;;;1.27;0.87;;;9.20;99.90;;;;;;5074852;28;20186;-88
2021/11/30 08:46:01;;;;;;;6.03;0.40;;;9.20;99.90;;;;;;5046903;28;20240;-87
2021/11/30 08:48:26;;;;;;;0.53;0.23;;;9.30;99.90;;;;;;5049720;28;20221;-87
2021/11/30 08:50:56;;;;;;;0.10;0.10;;;9.30;99.90;;;;;;5029502;28;20220;-88
2021/11/30 08:53:24;;;;;;;2.07;1.33;;;9.30;99.90;;;;;;5046886;28;20225;-87
2021/11/30 08:55:50;;;;;;;4.80;0.63;;;9.30;99.90;;;;;;5039257;28;20198;-88
2021/11/30 08:58:16;;;;;;;0.10;0.10;;;9.30;99.90;;;;;;5046180;28;20219;-88
2021/11/30 09:00:42;;;;;;;0.10;0.10;;;9.30;99.90;;;;;;5046867;28;20222;-87
2021/11/30 09:03:08;;;;;;;4.27;0.57;;;9.20;99.90;;;;;;5036635;28;20300;-91
2021/11/30 09:05:34;;;;;;;0.20;0.20;;;9.20;99.90;;;;;;5043420;28;20232;-89
2021/11/30 09:08:01;;;;;;;0.10;0.10;;;9.20;99.90;;;;;;5060403;28;20197;-87
2021/11/30 09:10:27;;;;;;;4.50;0.57;;;9.20;99.90;;;;;;5045649;28;20221;-92
2021/11/30 09:12:53;;;;;;;0.30;0.30;;;9.20;99.90;;;;;;5045648;28;20225;-88
2021/11/30 09:15:19;;;;;;;7.70;1.30;;;9.20;99.90;;;;;;5046150;28;20217;-89
2021/11/30 09:17:46;;;;;;;0.00;0.00;;;9.20;99.90;;;;;;5061724;28;20225;-87
2021/11/30 09:20:13;;;;;;;0.00;0.00;;;9.20;99.90;;;;;;5046204;28;20198;-89
2021/11/30 09:22:39;;;;;;;0.17;0.17;;;9.20;99.90;;;;;;5063704;28;20190;-90
2021/11/30 09:25:06;;;;;;;0.30;0.30;;;9.30;99.90;;;;;;5046521;28;20238;-87
2021/11/30 09:27:32;;;;;;;0.20;0.20;;;9.30;99.90;;;;;;5046478;28;20685;-91
2021/11/30 09:30:00;;;;;;;3.10;0.83;;;9.30;99.90;;;;;;5047540;28;20222;-85
2021/11/30 09:32:30;;;;;;;2.13;0.47;;;9.40;99.90;;;;;;5046895;28;20234;-87
2021/11/30 09:35:00;;;;;;;0.27;0.27;;;9.40;99.90;;;;;;5046047;28;20190;-88
2021/11/30 09:37:27;;;;;;;0.00;0.00;;;9.40;99.90;;;;;;5045689;28;20226;-86
2021/11/30 09:39:53;;;;;;;5.83;0.43;;;9.40;99.90;;;;;;5054798;28;20233;-88
2021/11/30 09:42:19;;;;;;;1.27;0.60;;;9.50;99.90;;;;;;5034861;28;20222;-86
2021/11/30 09:44:46;;;;;;;0.20;0.20;;;9.50;99.90;;;;;;5042683;28;20229;-86
2021/11/30 09:47:14;;;;;;;0.10;0.10;;;9.60;99.90;;;;;;5044232;28;20190;-88
2021/11/30 09:49:40;;;;;;;5.43;0.53;;;9.60;99.90;;;;;;5052777;28;20194;-88
2021/11/30 09:52:06;;;;;;;1.80;0.63;;;9.50;99.90;;;;;;5045584;28;20225;-86
2021/11/30 09:54:32;;;;;;;10.90;0.53;;;9.50;99.90;;;;;;5045854;28;20218;-85
2021/11/30 09:56:58;;;;;;;1.60;0.50;;;9.40;99.90;;;;;;5046677;28;20236;-87
2021/11/30 09:59:24;;;;;;;2.23;1.60;;;9.40;99.90;;;;;;5045256;28;20249;-87
2021/11/30 10:01:50;;;;;;;0.10;0.10;;;9.50;99.90;;;;;;5030827;28;20200;-88
2021/11/30 10:04:16;;;;;;;1.33;0.70;;;9.50;99.90;;;;;;5040879;28;20222;-87
2021/11/30 10:06:42;;;;;;;0.20;0.20;;;9.60;99.90;;;;;;5044439;28;20245;-85
2021/11/30 10:09:16;;;;;;;1.30;0.50;;;9.60;99.90;;;;;;5027103;28;20232;-86
2021/11/30 10:11:42;;;;;;;1.40;0.37;;;9.60;99.90;;;;;;5045678;28;20791;-87
2021/11/30 10:14:22;;;;;;;0.90;0.10;;;9.50;99.90;;;;;;5044651;28;20194;-85
2021/11/30 10:17:35;;;;;;;0.83;0.37;;;9.50;99.90;;;;;;5044336;28;20571;-86
2021/11/30 10:20:11;;;;;;;6.23;0.60;;;9.40;99.90;;;;;;5043628;28;20228;-85
2021/11/30 10:22:56;;;;;;;2.07;0.87;;;9.40;99.90;;;;;;5045224;28;20209;-87
2021/11/30 10:25:28;;;;;;;0.37;0.37;;;9.20;99.90;;;;;;5042711;28;20218;-85
2021/11/30 10:28:00;;;;;;;0.43;0.43;;;9.20;99.90;;;;;;5042991;28;20692;-86
2021/11/30 10:30:32;;;;;;;1.60;0.50;;;9.10;99.90;;;;;;5058949;28;20309;-86
2021/11/30 10:33:03;;;;;;;1.43;0.30;;;9.10;99.90;;;;;;5040586;28;20230;-90
2021/11/30 10:35:31;;;;;;;0.10;0.10;;;9.20;99.90;;;;;;5057779;28;20218;-86
2021/11/30 10:37:58;;;;;;;0.40;0.40;;;9.10;99.90;;;;;;5024629;28;20313;-84
2021/11/30 10:40:27;;;;;;;3.30;0.73;;;9.10;99.90;;;;;;5042174;28;20244;-87
2021/11/30 10:42:59;;;;;;;1.60;0.70;;;9.10;99.90;;;;;;5038720;28;20232;-85
2021/11/30 10:45:24;;;;;;;0.10;0.10;;;9.10;99.90;;;;;;5041260;28;20321;-88
2021/11/30 10:47:50;;;;;;;10.53;2.57;;;9.10;99.90;;;;;;5043640;28;20222;-85
2021/11/30 10:50:21;;;;;;;2.07;1.97;;;9.10;99.90;;;;;;5025838;28;20305;-88
2021/11/30 10:52:50;;;;;;;0.77;0.70;;;9.10;99.90;;;;;;5022600;28;20707;-88
2021/11/30 10:55:18;;;;;;;5.33;1.23;;;9.10;99.90;;;;;;5038974;28;20217;-92
2021/11/30 10:57:47;;;;;;;1.17;0.20;;;9.10;99.90;;;;;;5055811;28;20252;-88
2021/11/30 11:00:26;;;;;;;1.50;0.40;;;9.10;99.90;;;;;;5040941;28;20237;-87
2021/11/30 11:03:01;;;;;;;0.53;0.53;;;9.20;99.90;;;;;;5040919;28;20228;-87
2021/11/30 11:06:28;;;;;;;4.43;0.23;;;9.20;99.90;;;;;;5041060;28;20244;-86
2021/11/30 11:08:41;;;;;;;14.67;1.00;;;9.20;99.90;;;;;;5045784;28;20221;-85
2021/11/30 11:11:07;;;;;;;0.70;0.37;;;9.20;99.90;;;;;;5045968;28;20221;-88
2021/11/30 11:13:35;;;;;;;0.60;0.50;;;9.20;99.90;;;;;;5045693;28;20665;-87
2021/11/30 11:16:06;;;;;;;2.80;0.30;;;9.20;99.90;;;;;;5048987;28;21112;-91
2021/11/30 11:18:36;;;;;;;0.33;0.20;;;9.20;99.90;;;;;;5049646;28;20249;-88
2021/11/30 11:21:15;;;;;;;1.37;0.77;;;9.20;99.90;;;;;;5057705;28;20228;-89
2021/11/30 11:23:43;;;;;;;3.60;1.17;;;9.20;99.90;;;;;;5049377;28;20217;-90
2021/11/30 11:26:21;;;;;;;2.47;1.70;;;9.20;99.90;;;;;;5048125;28;20911;-89
2021/11/30 11:28:48;;;;;;;0.20;0.20;;;9.20;99.90;;;;;;5049343;28;20186;-90
2021/11/30 11:31:15;;;;;;;1.17;1.17;;;9.20;99.90;;;;;;5065511;28;20252;-87
2021/11/30 11:33:41;;;;;;;4.27;2.87;;;9.20;99.90;;;;;;5042375;28;20228;-86
2021/11/30 11:36:07;;;;;;;0.10;0.10;;;9.20;99.90;;;;;;5057070;28;20584;-89
2021/11/30 11:38:34;;;;;;;1.73;0.93;;;9.30;99.90;;;;;;5032914;28;20264;-87
2021/11/30 11:41:00;;;;;;;2.33;0.17;;;9.30;99.90;;;;;;5048923;28;20282;-84
2021/11/30 11:43:26;;;;;;;0.20;0.20;;;9.30;99.90;;;;;;5050074;28;20226;-86
2021/11/30 11:45:53;;;;;;;4.30;2.97;;;9.30;99.90;;;;;;5062762;28;20228;-88
2021/11/30 11:48:20;;;;;;;2.03;0.77;;;9.30;99.90;;;;;;5032308;28;20683;-87
2021/11/30 11:50:58;;;;;;;6.20;0.23;;;9.20;99.90;;;;;;5049474;28;20758;-87
2021/11/30 11:53:27;;;;;;;0.13;0.13;;;9.20;99.90;;;;;;5048270;28;20233;-86
2021/11/30 11:56:12;;;;;;;0.23;0.23;;;9.30;99.90;;;;;;5050577;28;20189;-86
2021/11/30 11:58:40;;;;;;;0.23;0.23;;;9.20;99.90;;;;;;5048457;28;20221;-85
2021/11/30 12:01:07;;;;;;;1.77;1.67;;;9.20;99.90;;;;;;5051541;28;20423;-91
2021/11/30 12:03:54;;;;;;;4.73;0.40;;;9.10;99.90;;;;;;5053228;28;20214;-85
2021/11/30 12:06:25;;;;;;;0.97;0.80;;;9.10;99.90;;;;;;5055357;28;20244;-86
2021/11/30 12:09:22;;;;;;;5.83;0.53;;;9.10;99.90;;;;;;5049099;28;20327;-84
2021/11/30 12:11:50;;;;;;;13.17;1.17;;;9.00;99.90;;;;;;5063488;28;20248;-85
2021/11/30 12:14:36;;;;;;;4.17;0.70;;;8.90;99.90;;;;;;5044869;28;20723;-85
2021/11/30 12:17:03;;;;;;;0.37;0.23;;;8.80;99.90;;;;;;5044781;28;20182;-84
2021/11/30 12:19:33;;;;;;;0.20;0.20;;;8.90;99.90;;;;;;5046895;28;20191;-87
2021/11/30 12:21:58;;;;;;;1.13;0.63;;;8.80;99.90;;;;;;5044547;28;20233;-84
2021/11/30 12:24:37;;;;;;;1.47;0.97;;;8.90;99.90;;;;;;5045164;28;20280;-83
2021/11/30 12:27:22;;;;;;;6.10;5.50;;;8.90;99.90;;;;;;5043953;28;20239;-83
2021/11/30 12:29:53;;;;;;;4.50;1.70;;;8.90;99.90;;;;;;5045041;28;20233;-86
2021/11/30 12:32:27;;;;;;;2.10;0.60;;;8.90;99.90;;;;;;5044815;28;20537;-84
2021/11/30 12:35:00;;;;;;;0.83;0.83;;;8.90;99.90;;;;;;5045309;28;20201;-86
2021/11/30 12:37:28;;;;;;;3.10;0.70;;;8.90;99.90;;;;;;5052739;28;20642;-88
2021/11/30 12:40:06;;;;;;;1.97;0.60;;;8.90;99.90;;;;;;5044682;28;20241;-83
2021/11/30 12:42:38;;;;;;;9.10;2.00;;;8.90;99.90;;;;;;5023264;28;20218;-85
2021/11/30 12:45:05;;;;;;;1.23;0.83;;;8.90;99.90;;;;;;5033772;28;20221;-82
2021/11/30 12:47:30;;;;;;;2.70;1.17;;;8.90;99.90;;;;;;5061350;28;20226;-82
2021/11/30 12:49:56;;;;;;;1.20;1.10;;;9.00;99.90;;;;;;5045406;28;20189;-82
2021/11/30 12:52:26;;;;;;;1.80;0.63;;;9.00;99.90;;;;;;5025269;28;20223;-83
2021/11/30 12:55:01;;;;;;;0.70;0.70;;;9.00;99.90;;;;;;5032133;28;21754;-84
2021/11/30 12:57:32;;;;;;;1.60;0.70;;;9.00;99.90;;;;;;5021078;28;20229;-83
2021/11/30 13:00:07;;;;;;;0.50;0.47;;;9.00;99.90;;;;;;5025971;28;20227;-85
2021/11/30 13:02:42;;;;;;;8.50;1.87;;;9.10;99.90;;;;;;5024065;28;20232;-87
2021/11/30 13:05:07;;;;;;;1.37;1.07;;;9.10;99.90;;;;;;5027317;28;20273;-81
2021/11/30 13:07:36;;;;;;;3.67;1.20;;;9.10;99.90;;;;;;5054998;28;20258;-86
2021/11/30 13:10:24;;;;;;;0.20;0.20;;;9.20;99.90;;;;;;5027997;28;20273;-82
2021/11/30 13:12:52;;;;;;;2.23;1.60;;;9.10;99.90;;;;;;5021420;28;20234;-87
2021/11/30 13:15:18;;;;;;;0.93;0.77;;;9.10;99.90;;;;;;5022101;28;20223;-84